Time;durP1;ratioP1;P1;durP2;ratioP2;P2;SDS_P1;SDS_P2;PMS_P1;PMS_P2;Temp;Humidity;BMP_temperature;BMP_pressure;BME280_temperature;BME280_humidity;BME280_pressure;Samples;Min_cycle;Max_cycle;Signal;HPM_P1;HPM_P2
2024/03/19 00:00:13;;;;;;;84.57;53.38;;;;;;;;;;2104387;28;20063;-88
2024/03/19 00:01:13;;;;;;;86.15;53.70;;;;;;;;;;2091687;28;20072;-86
2024/03/19 00:02:15;;;;;;;;;;;;;;;;;;2106064;28;20056;-86
2024/03/19 00:03:15;;;;;;;87.90;52.65;;;;;;;;;;2103572;28;19939;-86
2024/03/19 00:04:17;;;;;;;;;;;;;;;;;;2103415;28;20117;-88
2024/03/19 00:05:17;;;;;;;84.45;49.90;;;;;;;;;;2106750;28;19920;-86
2024/03/19 00:06:19;;;;;;;;;;;;;;;;;;2104869;28;20046;-84
2024/03/19 00:07:19;;;;;;;88.60;49.97;;;;;;;;;;2105876;28;19920;-86
2024/03/19 00:08:21;;;;;;;;;;;;;;;;;;2103188;28;20040;-86
2024/03/19 00:09:23;;;;;;;;;;;;;;;;;;2104386;28;19968;-85
2024/03/19 00:10:24;;;;;;;85.15;50.83;;;;;;;;;;2105792;28;19928;-86
2024/03/19 00:11:25;;;;;;;;;;;;;;;;;;2104859;28;20135;-85
2024/03/19 00:12:26;;;;;;;87.55;52.88;;;;;;;;;;2102336;28;19920;-84
2024/03/19 00:13:28;;;;;;;91.57;54.22;;;;;;;;;;2103050;28;20148;-84
2024/03/19 00:14:29;;;;;;;88.22;54.92;;;;;;;;;;2103378;28;20390;-86
2024/03/19 00:15:30;;;;;;;;;;;;;;;;;;2102824;28;20046;-83
2024/03/19 00:16:31;;;;;;;91.35;54.17;;;;;;;;;;2104963;28;19919;-85
2024/03/19 00:17:32;;;;;;;;;;;;;;;;;;2104683;28;20090;-86
2024/03/19 00:18:33;;;;;;;90.55;53.97;;;;;;;;;;2105893;28;19923;-85
2024/03/19 00:19:34;;;;;;;;;;;;;;;;;;2103714;28;20036;-85
2024/03/19 00:20:34;;;;;;;94.93;54.17;;;;;;;;;;2105710;28;20365;-85
2024/03/19 00:21:36;;;;;;;;;;;;;;;;;;2108191;28;20127;-85
2024/03/19 00:22:36;;;;;;;90.93;52.50;;;;;;;;;;2104600;27;19980;-83
2024/03/19 00:23:38;;;;;;;;;;;;;;;;;;2107091;28;20501;-84
2024/03/19 00:24:40;;;;;;;94.07;52.70;;;;;;;;;;2105378;28;20266;-85
2024/03/19 00:25:40;;;;;;;101.32;57.50;;;;;;;;;;2103113;27;20036;-86
2024/03/19 00:26:42;;;;;;;;;;;;;;;;;;2104376;28;20466;-84
2024/03/19 00:27:43;;;;;;;103.75;56.83;;;;;;;;;;2102469;28;20357;-87
2024/03/19 00:28:44;;;;;;;;;;;;;;;;;;2101492;28;20127;-85
2024/03/19 00:29:45;;;;;;;103.22;53.97;;;;;;;;;;2104007;28;19959;-86
2024/03/19 00:30:46;;;;;;;;;;;;;;;;;;2104053;28;20663;-85
2024/03/19 00:31:47;;;;;;;92.43;54.45;;;;;;;;;;2103416;28;19927;-86
2024/03/19 00:32:47;;;;;;;;;;;;;;;;;;2104097;28;20546;-85
2024/03/19 00:33:49;;;;;;;99.23;55.43;;;;;;;;;;2102214;28;20335;-84
2024/03/19 00:34:50;;;;;;;101.88;58.17;;;;;;;;;;2101289;28;20056;-84
2024/03/19 00:35:51;;;;;;;;;;;;;;;;;;2102380;28;20058;-84
2024/03/19 00:36:52;;;;;;;98.75;55.45;;;;;;;;;;2102349;28;19924;-86
2024/03/19 00:37:53;;;;;;;;;;;;;;;;;;2102566;28;20463;-85
2024/03/19 00:38:55;;;;;;;99.10;54.15;;;;;;;;;;2100575;28;20344;-84
2024/03/19 00:39:56;;;;;;;99.22;54.70;;;;;;;;;;2104685;28;20105;-84
2024/03/19 00:40:57;;;;;;;;;;;;;;;;;;2097373;28;20048;-85
2024/03/19 00:41:58;;;;;;;98.65;54.78;;;;;;;;;;2104250;28;19968;-84
2024/03/19 00:42:59;;;;;;;;;;;;;;;;;;2103636;28;20465;-84
2024/03/19 00:44:00;;;;;;;106.53;54.92;;;;;;;;;;2099559;28;19920;-84
2024/03/19 00:45:03;;;;;;;;;;;;;;;;;;2102176;28;20077;-85
2024/03/19 00:46:04;;;;;;;97.03;54.85;;;;;;;;;;2101386;28;20011;-83
2024/03/19 00:47:05;;;;;;;;;;;;;;;;;;2103360;28;20055;-86
2024/03/19 00:48:07;;;;;;;98.38;54.42;;;;;;;;;;2103694;28;20297;-85
2024/03/19 00:49:09;;;;;;;102.50;56.50;;;;;;;;;;2105167;27;20049;-85
2024/03/19 00:50:10;;;;;;;107.18;58.30;;;;;;;;;;2101587;28;20048;-85
2024/03/19 00:51:11;;;;;;;;;;;;;;;;;;2103809;28;20072;-85
2024/03/19 00:52:12;;;;;;;104.03;56.45;;;;;;;;;;2101041;28;19924;-85
2024/03/19 00:53:13;;;;;;;;;;;;;;;;;;2102763;28;20105;-84
2024/03/19 00:54:15;;;;;;;103.50;57.90;;;;;;;;;;2103599;28;19931;-86
2024/03/19 00:55:17;;;;;;;106.75;57.50;;;;;;;;;;2103962;28;20048;-86
2024/03/19 00:56:18;;;;;;;102.88;58.25;;;;;;;;;;2105991;28;20060;-85
2024/03/19 00:57:21;;;;;;;;;;;;;;;;;;2105113;28;20071;-85
2024/03/19 00:58:21;;;;;;;105.60;56.17;;;;;;;;;;2101276;28;19955;-85
2024/03/19 00:59:23;;;;;;;;;;;;;;;;;;2104231;28;20039;-86
2024/03/19 01:00:23;;;;;;;97.47;55.10;;;;;;;;;;2103558;28;19928;-85
2024/03/19 01:01:26;;;;;;;;;;;;;;;;;;2102413;28;20056;-86
2024/03/19 01:02:27;;;;;;;98.25;54.38;;;;;;;;;;2101315;28;20400;-84
2024/03/19 01:03:28;;;;;;;102.90;55.97;;;;;;;;;;2102008;28;20493;-85
2024/03/19 01:04:29;;;;;;;;;;;;;;;;;;2101830;28;20044;-84
2024/03/19 01:05:30;;;;;;;97.72;54.00;;;;;;;;;;2103778;28;19923;-85
2024/03/19 01:06:31;;;;;;;;;;;;;;;;;;2100400;28;20507;-84
2024/03/19 01:07:32;;;;;;;99.70;55.13;;;;;;;;;;2103831;28;19930;-85
2024/03/19 01:08:33;;;;;;;;;;;;;;;;;;2101833;28;20135;-84
2024/03/19 01:09:39;;;;;;;98.20;54.42;;;;;;;;;;2103624;28;19928;-84
2024/03/19 01:10:42;;;;;;;102.65;57.42;;;;;;;;;;2101902;28;20052;-85
2024/03/19 01:11:43;;;;;;;108.63;60.15;;;;;;;;;;2104378;28;20048;-85
2024/03/19 01:12:44;;;;;;;102.88;58.55;;;;;;;;;;2104060;28;20055;-85
2024/03/19 01:13:45;;;;;;;103.30;57.05;;;;;;;;;;2102253;28;20075;-85
2024/03/19 01:14:45;;;;;;;;;;;;;;;;;;2103232;28;20416;-86
2024/03/19 01:15:47;;;;;;;99.75;55.03;;;;;;;;;;2104861;28;19967;-86
2024/03/19 01:16:47;;;;;;;94.55;54.38;;;;;;;;;;2106623;28;20039;-86
2024/03/19 01:17:49;;;;;;;;;;;;;;;;;;2105755;28;20097;-84
2024/03/19 01:18:49;;;;;;;94.60;53.38;;;;;;;;;;2102887;28;19974;-85
2024/03/19 01:19:51;;;;;;;;;;;;;;;;;;2105507;27;20541;-85
2024/03/19 01:20:53;;;;;;;100.70;54.08;;;;;;;;;;2102420;28;19920;-84
2024/03/19 01:21:53;;;;;;;99.00;54.22;;;;;;;;;;2103707;28;20484;-85
2024/03/19 01:22:55;;;;;;;;;;;;;;;;;;2104451;28;20149;-87
2024/03/19 01:23:56;;;;;;;94.03;51.63;;;;;;;;;;2103442;28;19928;-84
2024/03/19 01:25:00;;;;;;;97.28;55.05;;;;;;;;;;2107723;28;20044;-85
2024/03/19 01:26:02;;;;;;;100.05;53.70;;;;;;;;;;2103657;28;20051;-85
2024/03/19 01:27:05;;;;;;;93.65;54.25;;;;;;;;;;2102970;28;20051;-88
2024/03/19 01:28:06;;;;;;;91.55;54.65;;;;;;;;;;2104775;27;20052;-85
2024/03/19 01:29:07;;;;;;;;;;;;;;;;;;2105001;28;20094;-84
2024/03/19 01:30:09;;;;;;;100.22;53.30;;;;;;;;;;2104837;28;19973;-84
2024/03/19 01:31:10;;;;;;;92.50;52.78;;;;;;;;;;2102572;28;20055;-85
2024/03/19 01:32:11;;;;;;;96.50;53.97;;;;;;;;;;2103831;28;20409;-87
2024/03/19 01:33:12;;;;;;;;;;;;;;;;;;2102581;28;20170;-86
2024/03/19 01:34:13;;;;;;;94.80;52.63;;;;;;;;;;2104742;28;19924;-86
2024/03/19 01:35:15;;;;;;;;;;;;;;;;;;2105811;28;20156;-86
2024/03/19 01:36:15;;;;;;;94.55;52.97;;;;;;;;;;2105620;28;20419;-85
2024/03/19 01:37:17;;;;;;;;;;;;;;;;;;2103424;28;20170;-87
2024/03/19 01:38:17;;;;;;;87.50;50.03;;;;;;;;;;2104052;28;19945;-84
2024/03/19 01:39:22;;;;;;;;;;;;;;;;;;2104208;28;20056;-86
2024/03/19 01:40:25;;;;;;;88.88;50.38;;;;;;;;;;2100420;28;19916;-85
2024/03/19 01:41:25;;;;;;;87.80;50.53;;;;;;;;;;2105327;28;20451;-85
2024/03/19 01:42:26;;;;;;;;;;;;;;;;;;2104987;28;20047;-86
2024/03/19 01:43:27;;;;;;;92.55;52.72;;;;;;;;;;2101545;28;19924;-85
2024/03/19 01:44:28;;;;;;;;;;;;;;;;;;2104484;28;20047;-86
2024/03/19 01:45:29;;;;;;;87.35;49.70;;;;;;;;;;2104916;28;19974;-86
2024/03/19 01:46:31;;;;;;;;;;;;;;;;;;2103515;28;20402;-84
2024/03/19 01:47:34;;;;;;;87.43;49.63;;;;;;;;;;2101647;28;20011;-84
2024/03/19 01:48:36;;;;;;;89.60;50.30;;;;;;;;;;2105854;28;20583;-84
2024/03/19 01:49:38;;;;;;;95.07;51.88;;;;;;;;;;2105097;28;20037;-85
2024/03/19 01:50:39;;;;;;;94.70;52.00;;;;;;;;;;2100470;28;20092;-84
2024/03/19 01:51:39;;;;;;;;;;;;;;;;;;2106421;28;20566;-85
2024/03/19 01:52:42;;;;;;;89.90;50.07;;;;;;;;;;2103705;28;19920;-86
2024/03/19 01:53:43;;;;;;;95.22;52.80;;;;;;;;;;2104010;28;20047;-85
2024/03/19 01:54:45;;;;;;;;;;;;;;;;;;2105826;28;20105;-85
2024/03/19 01:55:47;;;;;;;;;;;;;;;;;;2101270;28;19947;-84
2024/03/19 01:56:48;;;;;;;95.25;50.92;;;;;;;;;;2106122;28;19920;-84
2024/03/19 01:57:50;;;;;;;89.93;50.55;;;;;;;;;;2103626;28;20066;-85
2024/03/19 01:58:52;;;;;;;87.07;50.95;;;;;;;;;;2104225;28;20126;-84
2024/03/19 01:59:53;;;;;;;92.93;52.60;;;;;;;;;;2104122;28;20051;-84
2024/03/19 02:00:54;;;;;;;90.07;49.53;;;;;;;;;;2106299;28;20058;-85
2024/03/19 02:01:55;;;;;;;;;;;;;;;;;;2103283;28;20136;-86
2024/03/19 02:02:56;;;;;;;88.07;51.13;;;;;;;;;;2105974;28;19931;-87
2024/03/19 02:03:58;;;;;;;;;;;;;;;;;;2102346;28;20540;-86
2024/03/19 02:04:59;;;;;;;88.55;49.45;;;;;;;;;;2104547;28;20676;-86
2024/03/19 02:06:00;;;;;;;89.72;50.13;;;;;;;;;;2103422;28;20056;-87
2024/03/19 02:07:01;;;;;;;;;;;;;;;;;;2104905;28;20043;-86
2024/03/19 02:08:02;;;;;;;87.78;48.65;;;;;;;;;;2104114;27;19943;-85
2024/03/19 02:09:04;;;;;;;;;;;;;;;;;;2103709;28;20123;-85
2024/03/19 02:10:07;;;;;;;78.35;46.70;;;;;;;;;;2103158;28;19949;-86
2024/03/19 02:11:10;;;;;;;79.00;47.78;;;;;;;;;;2102219;28;20040;-86
2024/03/19 02:12:10;;;;;;;81.95;48.15;;;;;;;;;;2102402;28;20547;-84
2024/03/19 02:13:11;;;;;;;;;;;;;;;;;;2104974;27;20094;-83
2024/03/19 02:14:12;;;;;;;79.80;45.63;;;;;;;;;;2101798;28;20042;-84
2024/03/19 02:15:13;;;;;;;80.70;48.03;;;;;;;;;;2102800;28;20048;-84
2024/03/19 02:16:13;;;;;;;;;;;;;;;;;;2103525;28;20074;-85
2024/03/19 02:17:15;;;;;;;84.83;47.83;;;;;;;;;;2104663;28;19927;-86
2024/03/19 02:18:15;;;;;;;87.38;49.50;;;;;;;;;;2103531;28;20044;-84
2024/03/19 02:19:17;;;;;;;;;;;;;;;;;;2104226;28;20049;-85
2024/03/19 02:20:19;;;;;;;82.88;48.72;;;;;;;;;;2103756;28;20281;-84
2024/03/19 02:21:20;;;;;;;85.22;48.97;;;;;;;;;;2105068;28;20048;-86
2024/03/19 02:22:25;;;;;;;85.80;52.30;;;;;;;;;;2104599;28;20048;-87
2024/03/19 02:23:27;;;;;;;88.57;51.08;;;;;;;;;;2104685;28;20101;-84
2024/03/19 02:24:27;;;;;;;87.28;51.00;;;;;;;;;;2102374;28;20539;-85
2024/03/19 02:25:29;;;;;;;;;;;;;;;;;;2104727;28;20040;-83
2024/03/19 02:26:31;;;;;;;86.40;51.13;;;;;;;;;;2105100;28;19958;-86
2024/03/19 02:27:33;;;;;;;89.00;51.38;;;;;;;;;;2103615;28;20060;-85
2024/03/19 02:28:33;;;;;;;85.30;52.00;;;;;;;;;;2102293;28;20459;-85
2024/03/19 02:29:35;;;;;;;;;;;;;;;;;;2102843;28;20102;-83
2024/03/19 02:30:36;;;;;;;87.97;50.55;;;;;;;;;;2103463;28;19920;-86
2024/03/19 02:31:37;;;;;;;;;;;;;;;;;;2100733;28;20044;-84
2024/03/19 02:32:40;;;;;;;87.85;50.08;;;;;;;;;;2104820;28;19969;-85
2024/03/19 02:33:40;;;;;;;86.72;52.65;;;;;;;;;;2101314;28;20052;-86
2024/03/19 02:34:42;;;;;;;;;;;;;;;;;;2103973;28;20056;-85
2024/03/19 02:35:42;;;;;;;89.60;49.30;;;;;;;;;;2101823;28;19924;-85
2024/03/19 02:36:44;;;;;;;;;;;;;;;;;;2105390;28;20078;-86
2024/03/19 02:37:46;;;;;;;86.13;49.30;;;;;;;;;;2103360;28;19924;-84
2024/03/19 02:38:47;;;;;;;89.78;51.40;;;;;;;;;;2102667;28;20122;-86
2024/03/19 02:39:48;;;;;;;;;;;;;;;;;;2104070;28;20127;-83
2024/03/19 02:40:49;;;;;;;84.93;49.90;;;;;;;;;;2103190;28;19920;-85
2024/03/19 02:41:49;;;;;;;;;;;;;;;;;;2103398;28;20142;-84
2024/03/19 02:42:51;;;;;;;80.83;48.43;;;;;;;;;;2102461;28;19962;-86
2024/03/19 02:43:51;;;;;;;81.72;48.95;;;;;;;;;;2101681;28;20108;-86
2024/03/19 02:44:52;;;;;;;;;;;;;;;;;;2103566;28;20101;-86
2024/03/19 02:45:53;;;;;;;81.55;47.28;;;;;;;;;;2104184;28;19924;-85
2024/03/19 02:46:54;;;;;;;;;;;;;;;;;;2107518;27;20073;-85
2024/03/19 02:47:56;;;;;;;85.38;48.00;;;;;;;;;;2102504;28;20381;-84
2024/03/19 02:48:56;;;;;;;83.13;50.05;;;;;;;;;;2103182;28;20142;-85
2024/03/19 02:49:58;;;;;;;;;;;;;;;;;;2101857;28;20044;-84
2024/03/19 02:50:58;;;;;;;81.88;46.72;;;;;;;;;;2102402;28;19977;-85
2024/03/19 02:52:00;;;;;;;;;;;;;;;;;;2104873;28;20044;-84
2024/03/19 02:53:02;;;;;;;86.38;47.53;;;;;;;;;;2101359;28;19924;-85
2024/03/19 02:54:04;;;;;;;92.10;50.72;;;;;;;;;;2103394;28;20055;-86
2024/03/19 02:55:05;;;;;;;85.43;49.78;;;;;;;;;;2106419;28;20527;-85
2024/03/19 02:56:07;;;;;;;82.68;49.75;;;;;;;;;;2103241;28;20036;-86
2024/03/19 02:57:08;;;;;;;93.28;52.03;;;;;;;;;;2102610;28;20055;-85
2024/03/19 02:58:08;;;;;;;;;;;;;;;;;;2102351;28;20135;-84
2024/03/19 02:59:10;;;;;;;87.53;49.65;;;;;;;;;;2101651;28;20219;-85
2024/03/19 03:00:12;;;;;;;87.60;51.38;;;;;;;;;;2101815;28;20086;-85
2024/03/19 03:01:14;;;;;;;87.60;51.50;;;;;;;;;;2103305;28;20131;-84
2024/03/19 03:02:14;;;;;;;88.93;52.63;;;;;;;;;;2100478;28;20505;-85
2024/03/19 03:03:16;;;;;;;;;;;;;;;;;;2103805;28;20071;-86
2024/03/19 03:04:16;;;;;;;89.50;49.65;;;;;;;;;;2104625;28;19920;-84
2024/03/19 03:05:18;;;;;;;;;;;;;;;;;;2103352;28;20044;-85
2024/03/19 03:06:18;;;;;;;87.70;49.60;;;;;;;;;;2103301;28;20381;-85
2024/03/19 03:07:20;;;;;;;;;;;;;;;;;;2101980;28;20052;-84
2024/03/19 03:08:22;;;;;;;89.78;50.22;;;;;;;;;;2103886;28;19946;-85
2024/03/19 03:09:24;;;;;;;88.03;50.35;;;;;;;;;;2102831;28;20083;-85
2024/03/19 03:10:24;;;;;;;90.97;51.78;;;;;;;;;;2104056;28;20052;-85
2024/03/19 03:11:26;;;;;;;;;;;;;;;;;;2102452;28;20075;-85
2024/03/19 03:12:26;;;;;;;88.30;50.92;;;;;;;;;;2102624;28;20369;-86
2024/03/19 03:13:28;;;;;;;;;;;;;;;;;;2102764;28;20048;-85
2024/03/19 03:14:28;;;;;;;89.50;50.38;;;;;;;;;;2102946;28;19924;-86
2024/03/19 03:15:29;;;;;;;;;;;;;;;;;;2103091;28;20047;-84
2024/03/19 03:16:30;;;;;;;87.13;46.97;;;;;;;;;;2103722;28;19943;-84
2024/03/19 03:17:31;;;;;;;90.53;51.78;;;;;;;;;;2105266;28;20040;-85
2024/03/19 03:18:33;;;;;;;;;;;;;;;;;;2103256;28;20083;-85
2024/03/19 03:19:33;;;;;;;84.63;47.40;;;;;;;;;;2103360;28;19924;-83
2024/03/19 03:20:35;;;;;;;;;;;;;;;;;;2099858;28;20050;-85
2024/03/19 03:21:35;;;;;;;80.05;46.53;;;;;;;;;;2105159;28;19924;-84
2024/03/19 03:22:36;;;;;;;;;;;;;;;;;;2103674;28;20043;-86
2024/03/19 03:23:39;;;;;;;82.45;47.28;;;;;;;;;;2105790;28;19927;-84
2024/03/19 03:24:39;;;;;;;84.03;48.85;;;;;;;;;;2101235;28;20097;-84
2024/03/19 03:25:41;;;;;;;;;;;;;;;;;;2104198;28;20552;-85
2024/03/19 03:26:41;;;;;;;77.97;45.53;;;;;;;;;;2102339;28;19969;-85
2024/03/19 03:27:43;;;;;;;;;;;;;;;;;;2102054;28;20047;-84
2024/03/19 03:28:44;;;;;;;71.65;42.80;;;;;;;;;;2101558;28;19924;-85
2024/03/19 03:29:46;;;;;;;;;;;;;;;;;;2104070;28;20059;-84
2024/03/19 03:30:47;;;;;;;77.18;42.95;;;;;;;;;;2103548;28;20241;-85
2024/03/19 03:31:47;;;;;;;;;;;;;;;;;;2105049;28;20079;-84
2024/03/19 03:32:48;;;;;;;75.77;45.60;;;;;;;;;;2102465;28;19961;-84
2024/03/19 03:33:49;;;;;;;76.72;44.88;;;;;;;;;;2106286;28;20066;-85
2024/03/19 03:34:51;;;;;;;;;;;;;;;;;;2105504;27;20093;-84
2024/03/19 03:35:52;;;;;;;79.63;45.83;;;;;;;;;;2105294;28;20293;-87
2024/03/19 03:36:53;;;;;;;;;;;;;;;;;;2105732;28;20096;-84
2024/03/19 03:37:54;;;;;;;77.00;44.55;;;;;;;;;;2103950;28;19920;-86
2024/03/19 03:38:56;;;;;;;79.38;45.25;;;;;;;;;;2103915;28;20112;-86
2024/03/19 03:39:58;;;;;;;83.93;47.05;;;;;;;;;;2103520;28;20044;-84
2024/03/19 03:41:00;;;;;;;82.05;46.05;;;;;;;;;;2101538;28;20097;-84
2024/03/19 03:42:02;;;;;;;80.35;46.10;;;;;;;;;;2100771;28;20509;-84
2024/03/19 03:43:04;;;;;;;82.05;47.67;;;;;;;;;;2103691;28;20052;-86
2024/03/19 03:44:05;;;;;;;76.93;46.97;;;;;;;;;;2099769;28;20052;-84
2024/03/19 03:45:06;;;;;;;;;;;;;;;;;;2105160;28;20521;-84
2024/03/19 03:46:07;;;;;;;80.15;48.35;;;;;;;;;;2104919;27;19920;-85
2024/03/19 03:47:08;;;;;;;78.78;45.83;;;;;;;;;;2101585;28;20049;-87
2024/03/19 03:48:10;;;;;;;;;;;;;;;;;;2105766;28;20097;-84
2024/03/19 03:49:10;;;;;;;76.22;44.15;;;;;;;;;;2103768;28;20327;-85
2024/03/19 03:50:14;;;;;;;;;;;;;;;;;;2102918;28;20105;-85
2024/03/19 03:51:14;;;;;;;76.13;43.80;;;;;;;;;;2104055;28;19928;-83
2024/03/19 03:52:16;;;;;;;;;;;;;;;;;;2101810;28;20519;-86
2024/03/19 03:53:17;;;;;;;74.90;44.38;;;;;;;;;;2103211;28;19984;-84
2024/03/19 03:54:19;;;;;;;;;;;;;;;;;;2103788;28;20090;-85
2024/03/19 03:55:20;;;;;;;77.07;44.97;;;;;;;;;;2104285;28;19924;-84
2024/03/19 03:56:21;;;;;;;;;;;;;;;;;;2102230;28;20079;-83
2024/03/19 03:57:22;;;;;;;81.32;45.78;;;;;;;;;;2102707;28;20040;-86
2024/03/19 03:58:22;;;;;;;;;;;;;;;;;;2103280;28;20413;-84
2024/03/19 03:59:24;;;;;;;79.45;45.95;;;;;;;;;;2103127;28;19927;-84
2024/03/19 04:00:24;;;;;;;79.80;45.88;;;;;;;;;;2100964;28;20107;-86
2024/03/19 04:01:25;;;;;;;;;;;;;;;;;;2101625;28;20448;-84
2024/03/19 04:02:26;;;;;;;81.53;43.90;;;;;;;;;;2104656;28;19920;-84
2024/03/19 04:03:28;;;;;;;85.35;46.50;;;;;;;;;;2100998;28;20591;-84
2024/03/19 04:04:28;;;;;;;82.50;46.80;;;;;;;;;;2102571;27;20130;-86
2024/03/19 04:05:29;;;;;;;;;;;;;;;;;;2103450;28;20410;-84
2024/03/19 04:06:31;;;;;;;78.20;45.00;;;;;;;;;;2103856;28;19924;-84
2024/03/19 04:07:36;;;;;;;81.15;45.70;;;;;;;;;;2102506;28;20561;-85
2024/03/19 04:08:36;;;;;;;79.72;46.92;;;;;;;;;;2107975;28;20484;-84
2024/03/19 04:09:39;;;;;;;;;;;;;;;;;;2104704;28;20142;-85
2024/03/19 04:10:40;;;;;;;85.95;46.22;;;;;;;;;;2106861;27;19974;-84
2024/03/19 04:11:41;;;;;;;;;;;;;;;;;;2104849;28;20130;-85
2024/03/19 04:12:43;;;;;;;80.75;44.60;;;;;;;;;;2105880;28;19924;-84
2024/03/19 04:13:45;;;;;;;76.75;44.38;;;;;;;;;;2100817;28;20130;-84
2024/03/19 04:14:46;;;;;;;79.80;46.40;;;;;;;;;;2101294;28;20048;-85
2024/03/19 04:15:49;;;;;;;;;;;;;;;;;;2101322;28;20044;-84
2024/03/19 04:16:49;;;;;;;80.60;44.55;;;;;;;;;;2102968;28;19969;-86
2024/03/19 04:17:50;;;;;;;;;;;;;;;;;;2106146;28;20044;-85
2024/03/19 04:18:51;;;;;;;81.05;44.05;;;;;;;;;;2100750;28;19923;-87
2024/03/19 04:19:52;;;;;;;83.45;47.85;;;;;;;;;;2100934;28;20048;-85
2024/03/19 04:20:52;;;;;;;;;;;;;;;;;;2105676;28;20109;-85
2024/03/19 04:21:54;;;;;;;81.60;44.47;;;;;;;;;;2103905;28;19924;-84
2024/03/19 04:22:55;;;;;;;80.65;45.65;;;;;;;;;;2101678;28;20052;-84
2024/03/19 04:23:57;;;;;;;;;;;;;;;;;;2104110;28;20079;-85
2024/03/19 04:24:59;;;;;;;82.28;46.53;;;;;;;;;;2102206;28;19927;-85
2024/03/19 04:26:01;;;;;;;84.78;45.80;;;;;;;;;;2099535;28;20044;-85
2024/03/19 04:27:01;;;;;;;82.10;46.42;;;;;;;;;;2103198;28;20052;-85
2024/03/19 04:28:02;;;;;;;;;;;;;;;;;;2105189;28;20071;-86
2024/03/19 04:29:04;;;;;;;88.80;46.97;;;;;;;;;;2101521;28;19920;-85
2024/03/19 04:30:06;;;;;;;86.30;48.72;;;;;;;;;;2100521;28;20063;-84
2024/03/19 04:31:07;;;;;;;91.50;50.20;;;;;;;;;;2099332;28;20048;-85
2024/03/19 04:32:08;;;;;;;86.10;48.47;;;;;;;;;;2105281;28;20365;-86
2024/03/19 04:33:09;;;;;;;;;;;;;;;;;;2105118;28;20048;-85
2024/03/19 04:34:11;;;;;;;84.63;45.65;;;;;;;;;;2103553;27;19923;-85
2024/03/19 04:35:13;;;;;;;87.68;48.85;;;;;;;;;;2105185;28;20063;-85
2024/03/19 04:36:13;;;;;;;85.38;47.03;;;;;;;;;;2105630;28;20452;-85
2024/03/19 04:37:15;;;;;;;;;;;;;;;;;;2104425;28;20127;-84
2024/03/19 04:38:17;;;;;;;88.57;47.53;;;;;;;;;;2103329;28;19928;-85
2024/03/19 04:39:17;;;;;;;84.50;47.22;;;;;;;;;;2100192;28;20040;-85
2024/03/19 04:40:21;;;;;;;;;;;;;;;;;;2103113;28;20075;-86
2024/03/19 04:41:22;;;;;;;86.43;45.65;;;;;;;;;;2105533;28;20120;-85
2024/03/19 04:42:23;;;;;;;;;;;;;;;;;;2103835;28;20560;-85
2024/03/19 04:43:24;;;;;;;84.70;46.03;;;;;;;;;;2101190;28;21460;-85
2024/03/19 04:44:26;;;;;;;84.85;46.53;;;;;;;;;;2102373;28;20055;-84
2024/03/19 04:45:26;;;;;;;79.22;43.83;;;;;;;;;;2101361;28;20052;-84
2024/03/19 04:46:28;;;;;;;;;;;;;;;;;;2103048;28;20636;-85
2024/03/19 04:47:28;;;;;;;77.88;42.05;;;;;;;;;;2105623;28;19951;-84
2024/03/19 04:48:30;;;;;;;;;;;;;;;;;;2104068;28;20794;-87
2024/03/19 04:49:30;;;;;;;87.20;43.72;;;;;;;;;;2100346;28;19988;-83
2024/03/19 04:50:32;;;;;;;;;;;;;;;;;;2102314;28;20501;-86
2024/03/19 04:51:32;;;;;;;79.20;43.65;;;;;;;;;;2102317;28;19928;-83
2024/03/19 04:52:34;;;;;;;;;;;;;;;;;;2105602;27;20040;-84
2024/03/19 04:53:34;;;;;;;87.93;47.13;;;;;;;;;;2104261;28;20344;-85
2024/03/19 04:54:36;;;;;;;;;;;;;;;;;;2106499;28;20049;-83
2024/03/19 04:55:38;;;;;;;89.22;45.53;;;;;;;;;;2103064;28;19927;-84
2024/03/19 04:56:39;;;;;;;89.95;47.45;;;;;;;;;;2103363;28;20082;-83
2024/03/19 04:57:40;;;;;;;90.80;47.05;;;;;;;;;;2103196;28;20078;-83
2024/03/19 04:58:41;;;;;;;;;;;;;;;;;;2104650;28;20088;-82
2024/03/19 04:59:42;;;;;;;84.55;43.88;;;;;;;;;;2104432;28;20338;-83
2024/03/19 05:00:43;;;;;;;;;;;;;;;;;;2103786;28;20098;-83
2024/03/19 05:01:44;;;;;;;83.80;43.28;;;;;;;;;;2105657;28;20377;-83
2024/03/19 05:02:45;;;;;;;;;;;;;;;;;;2103808;28;20104;-86
2024/03/19 05:03:46;;;;;;;83.43;42.65;;;;;;;;;;2103157;28;20290;-84
2024/03/19 05:04:47;;;;;;;;;;;;;;;;;;2105520;27;20075;-85
2024/03/19 05:05:48;;;;;;;80.50;44.25;;;;;;;;;;2106029;28;20296;-86
2024/03/19 05:06:49;;;;;;;;;;;;;;;;;;2103810;28;20052;-86
2024/03/19 05:07:50;;;;;;;86.43;43.60;;;;;;;;;;2103148;28;19920;-85
2024/03/19 05:08:51;;;;;;;;;;;;;;;;;;2105769;28;20048;-86
2024/03/19 05:09:52;;;;;;;93.43;46.33;;;;;;;;;;2105600;28;20361;-87
2024/03/19 05:10:55;;;;;;;;;;;;;;;;;;2105478;28;20044;-86
2024/03/19 05:11:56;;;;;;;94.10;46.20;;;;;;;;;;2104985;28;20129;-85
2024/03/19 05:12:57;;;;;;;;;;;;;;;;;;2103535;28;20053;-87
2024/03/19 05:13:58;;;;;;;89.47;45.83;;;;;;;;;;2103816;28;19928;-85
2024/03/19 05:14:59;;;;;;;;;;;;;;;;;;2105326;28;20072;-85
2024/03/19 05:16:00;;;;;;;92.07;44.78;;;;;;;;;;2103833;28;19927;-85
2024/03/19 05:17:03;;;;;;;;;;;;;;;;;;2105603;28;20154;-87
2024/03/19 05:18:04;;;;;;;89.68;44.78;;;;;;;;;;2103741;28;20298;-86
2024/03/19 05:19:06;;;;;;;;;;;;;;;;;;2105463;27;20130;-85
2024/03/19 05:20:07;;;;;;;85.88;43.58;;;;;;;;;;2104816;28;19927;-85
2024/03/19 05:21:09;;;;;;;85.57;45.25;;;;;;;;;;2104768;28;20416;-88
2024/03/19 05:22:09;;;;;;;80.70;45.47;;;;;;;;;;2102881;28;20052;-85
2024/03/19 05:23:10;;;;;;;;;;;;;;;;;;2105083;28;20130;-85
2024/03/19 05:24:11;;;;;;;87.10;42.60;;;;;;;;;;2103544;28;19924;-86
2024/03/19 05:25:13;;;;;;;80.25;42.90;;;;;;;;;;2106039;28;20047;-82
2024/03/19 05:26:16;;;;;;;87.70;42.67;;;;;;;;;;2103753;28;20059;-86
2024/03/19 05:27:17;;;;;;;87.93;45.65;;;;;;;;;;2102858;28;20059;-84
2024/03/19 05:28:18;;;;;;;84.65;45.38;;;;;;;;;;2102472;28;20552;-85
2024/03/19 05:29:19;;;;;;;85.53;46.25;;;;;;;;;;2103528;28;20497;-84
2024/03/19 05:30:20;;;;;;;;;;;;;;;;;;2104572;28;20127;-84
2024/03/19 05:31:22;;;;;;;85.78;44.63;;;;;;;;;;2104230;28;19927;-85
2024/03/19 05:32:24;;;;;;;91.40;47.63;;;;;;;;;;2102091;28;20048;-84
2024/03/19 05:33:25;;;;;;;87.45;45.30;;;;;;;;;;2108548;28;20425;-86
2024/03/19 05:34:25;;;;;;;;;;;;;;;;;;2106793;28;20052;-85
2024/03/19 05:35:27;;;;;;;85.53;43.63;;;;;;;;;;2103050;28;19928;-86
2024/03/19 05:36:27;;;;;;;86.35;45.28;;;;;;;;;;2103743;28;20052;-85
2024/03/19 05:37:29;;;;;;;;;;;;;;;;;;2102944;28;20047;-85
2024/03/19 05:38:29;;;;;;;86.88;44.10;;;;;;;;;;2105465;28;19946;-84
2024/03/19 05:39:31;;;;;;;;;;;;;;;;;;2103694;28;20041;-86
2024/03/19 05:40:32;;;;;;;79.65;42.05;;;;;;;;;;2106349;27;19920;-85
2024/03/19 05:41:35;;;;;;;;;;;;;;;;;;2103714;28;20091;-85
2024/03/19 05:42:36;;;;;;;88.47;43.63;;;;;;;;;;2104507;28;20011;-84
2024/03/19 05:43:37;;;;;;;86.28;45.10;;;;;;;;;;2100452;28;20635;-85
2024/03/19 05:44:38;;;;;;;90.05;46.92;;;;;;;;;;2103419;28;20056;-85
2024/03/19 05:45:39;;;;;;;;;;;;;;;;;;2103011;28;20083;-85
2024/03/19 05:46:40;;;;;;;84.40;43.47;;;;;;;;;;2102122;28;19935;-85
2024/03/19 05:47:40;;;;;;;;;;;;;;;;;;2105996;28;20122;-87
2024/03/19 05:48:42;;;;;;;87.38;44.63;;;;;;;;;;2104398;28;19919;-86
2024/03/19 05:49:43;;;;;;;93.25;46.15;;;;;;;;;;2105459;28;20048;-87
2024/03/19 05:50:43;;;;;;;;;;;;;;;;;;2103716;28;20060;-86
2024/03/19 05:51:45;;;;;;;87.38;44.47;;;;;;;;;;2102545;28;19927;-87
2024/03/19 05:52:45;;;;;;;89.18;44.38;;;;;;;;;;2103343;28;20052;-86
2024/03/19 05:53:47;;;;;;;;;;;;;;;;;;2104156;28;20563;-86
2024/03/19 05:54:47;;;;;;;80.18;42.17;;;;;;;;;;2103295;28;19966;-87
2024/03/19 05:55:49;;;;;;;;;;;;;;;;;;2101667;28;20048;-85
2024/03/19 05:56:51;;;;;;;86.13;44.05;;;;;;;;;;2104006;28;20403;-86
2024/03/19 05:57:52;;;;;;;89.70;45.35;;;;;;;;;;2100874;28;20044;-85
2024/03/19 05:58:53;;;;;;;86.20;44.17;;;;;;;;;;2103368;28;20052;-87
2024/03/19 05:59:53;;;;;;;;;;;;;;;;;;2101506;28;20150;-85
2024/03/19 06:00:58;;;;;;;87.70;41.87;;;;;;;;;;2104028;28;19927;-86
2024/03/19 06:01:58;;;;;;;85.70;43.95;;;;;;;;;;2103837;28;20147;-83
2024/03/19 06:02:59;;;;;;;;;;;;;;;;;;2103485;28;20051;-84
2024/03/19 06:04:01;;;;;;;85.53;44.60;;;;;;;;;;2103847;28;19941;-82
2024/03/19 06:05:01;;;;;;;92.10;47.10;;;;;;;;;;2104900;28;20045;-84
2024/03/19 06:06:08;;;;;;;;;;;;;;;;;;2104865;28;20131;-85
2024/03/19 06:07:09;;;;;;;93.03;47.08;;;;;;;;;;2104869;28;19920;-87
2024/03/19 06:08:11;;;;;;;;;;;;;;;;;;2104559;28;20044;-82
2024/03/19 06:09:11;;;;;;;100.40;46.67;;;;;;;;;;2102096;28;19977;-84
2024/03/19 06:10:12;;;;;;;;;;;;;;;;;;2104389;28;20097;-84
2024/03/19 06:11:13;;;;;;;97.05;47.40;;;;;;;;;;2103280;28;19928;-85
2024/03/19 06:12:16;;;;;;;;;;;;;;;;;;2104378;28;20483;-86
2024/03/19 06:13:16;;;;;;;92.47;46.50;;;;;;;;;;2103031;28;19924;-86
2024/03/19 06:14:18;;;;;;;;;;;;;;;;;;2102691;28;20040;-85
2024/03/19 06:15:19;;;;;;;95.18;46.60;;;;;;;;;;2102735;28;19932;-84
2024/03/19 06:16:20;;;;;;;;;;;;;;;;;;2104988;28;20127;-85